Terminal Aerodrome Forecast
Issued by NWS Portland, OR

Current Version | Previous Version | Text Only | Print | Product List | Glossary On
Versions: 1 2 3 4 5 6 7 8 9 10 11 12 13 14 15 16 17 18 19 20 21 22 23 24 25 26 27 28 29 30 31 32 33 34 35 36 37 38 39 40 41
000
FTUS46 KPQR 272320
TAFHIO
TAF
KHIO 272320Z 2800/2824 VRB04KT 6SM -RA BR SCT008 BKN015 OVC025
     FM280200 28007KT P6SM -SHRA SCT015 BKN030 OVC040
     FM280400 23004KT P6SM -SHRA FEW015 SCT030 BKN040
     FM281300 VRB03KT 3SM BR VCSH FEW004 BKN025 BKN040
     FM281700 26006KT P6SM VCSH FEW015 SCT025 BKN040=

USA.gov is the U.S. government's official web portal to all federal, state and local government web resources and services.